Weather at Bodø Airport

Public forecast

Using degrees Celsius for public forecast. Weather courtesy of forecast.io.

Current aviation weather report (METAR) for Bodø Airport

2024/05/29 08:20 (retrieved 22 minutes ago)

ENBO 290820Z 09014KT CAVOK 19/12 Q1012 NOSIG

Aviation forecast (TAF) for Bodø Airport

2024/05/29 06:36 (retrieved 2 hours ago)

TAF ENBO 290500Z 2906/3006 09015KT 9999 FEW010 TEMPO 2911/2918 VRB03KT TEMPO 2915/2919 FEW040CB